Time;durP1;ratioP1;P1;durP2;ratioP2;P2;SDS_P1;SDS_P2;PMS_P1;PMS_P2;Temp;Humidity;BMP_temperature;BMP_pressure;BME280_temperature;BME280_humidity;BME280_pressure;Samples;Min_cycle;Max_cycle;Signal;HPM_P1;HPM_P2
2021/04/16 04:01:17;;;;;;;10.05;7.60;;;;;;;5.33;53.40;94681.34;833153;71;33118;-72
2021/04/16 04:16:15;;;;;;;8.95;8.05;;;;;;;7.67;48.86;94682.27;826721;71;32703;-74
2021/04/16 04:31:09;;;;;;;10.15;9.00;;;;;;;9.39;45.72;94679.59;829712;71;30334;-74
2021/04/16 04:46:08;;;;;;;15.90;10.68;;;;;;;11.11;42.71;94682.06;827762;71;29833;-73
2021/04/16 05:01:14;;;;;;;15.80;12.18;;;;;;;12.59;39.63;94691.31;815984;71;32811;-74
2021/04/16 05:16:15;;;;;;;10.05;9.08;;;;;;;13.37;37.15;94698.34;832843;71;32754;-73
2021/04/16 05:31:16;;;;;;;9.63;8.73;;;;;;;13.97;36.21;94697.91;826636;71;32809;-74
2021/04/16 05:46:09;;;;;;;10.55;8.73;;;;;;;14.85;33.79;94701.61;828627;71;29807;-75
2021/04/16 06:01:12;;;;;;;11.75;8.55;;;;;;;15.50;32.23;94697.80;827004;71;32362;-75
2021/04/16 06:16:10;;;;;;;8.10;7.30;;;;;;;16.13;31.64;94690.96;834845;71;29723;-74
2021/04/16 06:31:17;;;;;;;10.05;8.95;;;;;;;16.69;31.03;94694.06;828952;71;32654;-72
2021/04/16 06:46:17;;;;;;;9.28;8.30;;;;;;;17.07;30.08;94689.22;827381;71;32709;-74
2021/04/16 07:01:27;;;;;;;9.23;8.33;;;;;;;17.58;29.24;94695.97;833065;71;32656;-73
2021/04/16 07:16:22;;;;;;;8.75;7.85;;;;;;;18.28;28.48;94703.77;826570;71;33441;-71
2021/04/16 07:31:14;;;;;;;7.30;6.70;;;;;;;18.76;27.39;94706.20;827382;71;29707;-76
2021/04/16 07:46:30;;;;;;;8.73;7.92;;;;;;;19.69;27.21;94702.73;827311;71;32025;-73
2021/04/16 08:01:23;;;;;;;7.83;7.12;;;;;;;19.67;26.18;94696.97;826739;71;32791;-71
2021/04/16 08:16:22;;;;;;;6.25;5.65;;;;;;;19.99;24.31;94692.50;832835;71;32764;-74
2021/04/16 08:31:13;;;;;;;7.20;6.60;;;;;;;20.74;23.75;94698.86;833509;71;29683;-74
2021/04/16 08:46:36;;;;;;;6.90;6.30;;;;;;;20.74;23.23;94692.98;823117;71;33100;-74
2021/04/16 09:02:09;;;;;;;;;;;;;;;;;;;;;
2021/04/16 09:31:24;;;;;;;19.73;8.63;;;;;;;20.78;23.60;94632.49;832985;71;33077;-76
2021/04/16 09:46:34;;;;;;;13.10;9.20;;;;;;;21.07;23.44;94618.97;827305;71;28773;-74
2021/04/16 10:01:16;;;;;;;9.35;8.45;;;;;;;20.44;23.64;94614.55;834393;71;29146;-74
2021/04/16 10:16:26;;;;;;;20.62;18.00;;;;;;;21.45;35.62;94596.84;827523;71;31477;-73
2021/04/16 12:46:09;;;;;;;6.72;6.12;;;;;;;17.64;26.69;94489.55;822139;71;29234;-72
2021/04/16 13:01:29;;;;;;;6.90;5.83;;;;;;;17.36;27.07;94476.17;820837;71;31829;-72
2021/04/16 13:16:15;;;;;;;8.03;6.70;;;;;;;17.40;26.80;94471.19;825079;71;31827;-73
2021/04/16 13:31:14;;;;;;;6.97;6.20;;;;;;;17.29;27.03;94479.35;820915;71;31878;-72
2021/04/16 13:46:14;;;;;;;8.00;6.75;;;;;;;17.17;26.92;94466.08;822721;71;29861;-74
2021/04/16 14:01:10;;;;;;;22.75;9.28;;;;;;;16.55;26.70;94460.62;822090;71;29725;-74
2021/04/16 14:16:30;;;;;;;12.15;7.53;;;;;;;15.75;26.94;94468.69;833755;71;32841;-74
2021/04/16 14:31:09;;;;;;;6.05;5.20;;;;;;;15.31;27.50;94466.25;833713;71;30215;-73
2021/04/16 14:46:08;;;;;;;6.10;5.50;;;;;;;14.94;27.16;94453.23;827607;71;29931;-73
2021/04/16 15:01:49;;;;;;;6.85;5.67;;;;;;;15.05;29.11;94457.66;827413;71;32777;-72
2021/04/16 15:16:17;;;;;;;7.33;5.25;;;;;;;14.33;27.78;94446.17;834300;71;32566;-75
2021/04/16 15:31:19;;;;;;;6.67;6.03;;;;;;;14.26;32.78;94434.02;826486;71;33276;-76
2021/04/16 15:46:35;;;;;;;7.00;4.83;;;;;;;13.73;28.13;94426.63;827023;71;32893;-77
2021/04/16 16:01:17;;;;;;;7.03;5.33;;;;;;;13.53;26.98;94414.81;826753;71;33733;-78
2021/04/16 16:16:14;;;;;;;9.95;5.80;;;;;;;13.44;27.98;94417.96;828395;71;29720;-76
2021/04/16 16:31:20;;;;;;;7.28;5.45;;;;;;;13.06;28.21;94419.78;832934;71;33178;-78
2021/04/16 16:46:17;;;;;;;10.25;8.50;;;;;;;12.75;28.41;94406.63;826873;71;32746;-76
2021/04/16 17:01:12;;;;;;;9.30;7.10;;;;;;;12.58;28.67;94413.36;834468;71;29746;-75
2021/04/16 17:16:11;;;;;;;9.98;8.20;;;;;;;12.53;29.47;94426.66;833278;71;29738;-77
2021/04/16 17:31:15;;;;;;;14.38;9.10;;;;;;;12.27;30.25;94448.09;833091;71;32819;-76
2021/04/16 17:46:15;;;;;;;9.58;8.15;;;;;;;11.93;32.25;94448.83;833467;71;32704;-79
2021/04/16 18:01:18;;;;;;;8.23;7.10;;;;;;;10.46;36.82;94463.66;827229;71;32689;-77
2021/04/16 18:16:17;;;;;;;15.80;8.30;;;;;;;;;;828130;71;33164;-76
2021/04/16 18:31:32;;;;;;;8.15;6.40;;;;;;;9.34;40.73;94511.26;827771;71;33296;-77
2021/04/16 18:46:18;;;;;;;14.00;9.55;;;;;;;9.19;41.28;94510.37;827358;71;32671;-78
2021/04/16 19:01:15;;;;;;;9.83;7.47;;;;;;;9.26;42.02;94515.80;826619;71;30271;-81
2021/04/16 19:16:20;;;;;;;11.35;8.68;;;;;;;8.93;42.97;94515.08;820300;71;32849;-77
2021/04/16 19:46:09;;;;;;;10.88;9.25;;;;;;;9.28;43.03;94500.05;821016;71;29845;-79
2021/04/16 20:31:10;;;;;;;20.00;15.05;;;;;;;10.02;43.14;94499.16;827474;71;30329;-80
2021/04/16 20:46:16;;;;;;;14.95;10.13;;;;;;;;;;827058;71;32738;-78
2021/04/16 21:01:48;;;;;;;15.25;12.03;;;;;;;9.72;43.24;94494.32;828785;71;31986;-79
2021/04/16 21:16:10;;;;;;;15.85;12.28;;;;;;;9.62;43.29;94516.18;828356;71;29664;-79
2021/04/16 21:31:35;;;;;;;11.83;10.08;;;;;;;9.60;43.38;94530.86;827930;71;32737;-79
2021/04/16 21:46:13;;;;;;;20.32;15.25;;;;;;;9.73;44.34;94541.72;834238;71;30283;-79
2021/04/16 22:01:19;;;;;;;22.62;15.53;;;;;;;9.79;44.60;94541.39;834301;71;32800;-80
2021/04/16 22:16:24;;;;;;;15.53;11.90;;;;;;;9.80;44.03;94536.93;829497;71;30272;-78
2021/04/16 22:31:31;;;;;;;11.57;9.63;;;;;;;9.81;43.77;94527.99;835384;71;32619;-79
2021/04/16 22:46:33;;;;;;;11.35;10.05;;;;;;;9.73;44.11;94517.62;828585;71;32706;-78
2021/04/16 23:01:11;;;;;;;13.98;10.08;;;;;;;9.66;44.28;94517.17;829075;71;29772;-78
2021/04/16 23:16:15;;;;;;;13.48;8.98;;;;;;;9.57;44.40;94513.61;827579;71;32011;-79
2021/04/16 23:31:17;;;;;;;7.75;7.05;;;;;;;9.52;44.48;94496.13;827062;71;33267;-78
2021/04/16 23:46:08;;;;;;;8.60;7.28;;;;;;;9.56;44.63;94476.70;827815;71;29669;-78
